Time;durP1;ratioP1;P1;durP2;ratioP2;P2;SDS_P1;SDS_P2;PMS_P1;PMS_P2;Temp;Humidity;BMP_temperature;BMP_pressure;BME280_temperature;BME280_humidity;BME280_pressure;Samples;Min_cycle;Max_cycle;Signal;HPM_P1;HPM_P2
2024/01/29 00:00:21;;;;;;;;;;;8.40;81.90;;;;;;4986721;28;20280;-71
2024/01/29 00:02:46;;;;;;;;;;;8.40;81.70;;;;;;4983592;28;22848;-71
2024/01/29 00:05:12;;;;;;;;;;;8.40;82.00;;;;;;4987015;28;19933;-71
2024/01/29 00:07:37;;;;;;;;;;;8.40;82.10;;;;;;4983976;28;19937;-71
2024/01/29 00:10:05;;;;;;;;;;;8.40;82.40;;;;;;4987836;28;19910;-71
2024/01/29 00:12:31;;;;;;;;;;;8.40;82.10;;;;;;4988325;28;19906;-72
2024/01/29 00:14:56;;;;;;;;;;;8.40;82.30;;;;;;4984125;28;20097;-71
2024/01/29 00:17:21;;;;;;;;;;;8.30;82.20;;;;;;4984430;28;19996;-71
2024/01/29 00:19:47;;;;;;;;;;;8.30;82.00;;;;;;4982102;28;19980;-71
2024/01/29 00:22:12;;;;;;;;;;;8.40;82.40;;;;;;4983725;28;19929;-71
2024/01/29 00:24:38;;;;;;;;;;;8.30;82.10;;;;;;4985954;28;20005;-71
2024/01/29 00:27:03;;;;;;;;;;;8.30;82.00;;;;;;4987828;28;19918;-71
2024/01/29 00:29:29;;;;;;;;;;;8.30;82.00;;;;;;4984140;28;19955;-71
2024/01/29 00:31:54;;;;;;;;;;;8.30;82.10;;;;;;4980829;28;20292;-71
2024/01/29 00:34:20;;;;;;;;;;;8.30;82.50;;;;;;4980176;28;20037;-71
2024/01/29 00:36:46;;;;;;;;;;;8.30;82.20;;;;;;4988065;28;19910;-71
2024/01/29 00:39:14;;;;;;;;;;;8.30;82.20;;;;;;4988696;28;20368;-71
2024/01/29 00:41:39;;;;;;;;;;;8.30;82.50;;;;;;4986663;28;19971;-71
2024/01/29 00:44:05;;;;;;;;;;;8.20;82.30;;;;;;4980678;28;19918;-71
2024/01/29 00:46:30;;;;;;;;;;;8.20;82.70;;;;;;4994224;23;20432;-71
2024/01/29 00:48:56;;;;;;;;;;;8.20;82.50;;;;;;5002389;28;20316;-71
2024/01/29 00:51:21;;;;;;;;;;;8.20;82.90;;;;;;4983040;28;19906;-71
2024/01/29 00:53:47;;;;;;;;;;;8.10;82.50;;;;;;4980560;28;19914;-71
2024/01/29 00:56:13;;;;;;;;;;;8.20;82.20;;;;;;4985945;28;19937;-71
2024/01/29 00:58:43;;;;;;;;;;;8.20;82.20;;;;;;4981342;28;19925;-71
2024/01/29 01:01:11;;;;;;;;;;;8.20;82.30;;;;;;5014615;28;20020;-71
2024/01/29 01:03:37;;;;;;;;;;;8.20;82.20;;;;;;4986440;28;19914;-71
2024/01/29 01:06:04;;;;;;;;;;;8.30;82.10;;;;;;4988472;28;19914;-71
2024/01/29 01:08:30;;;;;;;;;;;8.20;82.20;;;;;;4988112;28;19921;-71
2024/01/29 01:10:55;;;;;;;;;;;8.20;82.00;;;;;;4985308;28;19922;-71
2024/01/29 01:13:21;;;;;;;;;;;8.20;82.00;;;;;;4985103;28;19914;-71
2024/01/29 01:15:46;;;;;;;;;;;8.20;82.40;;;;;;4979372;28;20045;-71
2024/01/29 01:18:12;;;;;;;;;;;8.20;81.50;;;;;;4989561;28;20015;-71
2024/01/29 01:20:37;;;;;;;;;;;8.20;81.70;;;;;;4984136;28;20304;-71
2024/01/29 01:23:03;;;;;;;;;;;8.20;81.70;;;;;;4975853;28;20012;-71
2024/01/29 01:25:28;;;;;;;;;;;8.20;81.90;;;;;;4986392;28;20292;-71
2024/01/29 01:27:54;;;;;;;;;;;8.20;82.20;;;;;;4981369;28;19913;-71
2024/01/29 01:30:20;;;;;;;;;;;8.20;81.50;;;;;;4985845;28;19921;-71
2024/01/29 01:32:49;;;;;;;;;;;8.20;81.60;;;;;;4986901;28;19921;-71
2024/01/29 01:35:14;;;;;;;;;;;8.20;81.80;;;;;;4985273;28;19918;-71
2024/01/29 01:37:40;;;;;;;;;;;8.20;81.10;;;;;;4980512;28;19917;-71
2024/01/29 01:40:05;;;;;;;;;;;8.30;81.10;;;;;;4985289;28;19910;-71
2024/01/29 01:42:31;;;;;;;;;;;8.30;80.80;;;;;;4979418;28;19909;-71
2024/01/29 01:44:56;;;;;;;;;;;8.20;81.10;;;;;;4980860;28;19923;-71
2024/01/29 01:47:22;;;;;;;;;;;8.20;80.30;;;;;;4986621;28;20372;-71
2024/01/29 01:49:48;;;;;;;;;;;8.30;80.30;;;;;;4987972;28;19913;-71
2024/01/29 01:52:15;;;;;;;;;;;8.30;80.30;;;;;;4983933;28;19914;-71
2024/01/29 01:54:43;;;;;;;;;;;8.30;80.70;;;;;;4979044;28;19910;-71
2024/01/29 01:57:09;;;;;;;;;;;8.30;80.40;;;;;;4985067;28;19914;-71
2024/01/29 01:59:35;;;;;;;;;;;8.30;80.30;;;;;;5007196;28;20008;-71
2024/01/29 02:02:01;;;;;;;;;;;8.30;79.90;;;;;;4981794;28;19953;-71
2024/01/29 02:04:26;;;;;;;;;;;8.30;79.90;;;;;;4986164;28;19949;-71
2024/01/29 02:06:52;;;;;;;;;;;8.30;79.70;;;;;;4984484;28;19910;-72
2024/01/29 02:09:18;;;;;;;;;;;8.30;79.70;;;;;;4981919;28;19905;-71
2024/01/29 02:11:44;;;;;;;;;;;8.30;79.20;;;;;;4979312;28;19921;-71
2024/01/29 02:14:09;;;;;;;;;;;8.40;78.90;;;;;;4993876;28;20391;-70
2024/01/29 02:16:35;;;;;;;;;;;8.40;79.00;;;;;;4998444;28;19945;-71
2024/01/29 02:19:03;;;;;;;;;;;8.40;79.00;;;;;;5000493;28;19987;-71
2024/01/29 02:21:29;;;;;;;;;;;8.40;78.70;;;;;;4980630;28;19913;-71
2024/01/29 02:23:54;;;;;;;;;;;8.40;78.70;;;;;;4982147;28;19924;-71
2024/01/29 02:26:20;;;;;;;;;;;8.40;78.60;;;;;;4974153;28;20398;-71
2024/01/29 02:28:46;;;;;;;;;;;8.40;78.30;;;;;;4978566;28;20038;-71
2024/01/29 02:31:11;;;;;;;;;;;8.40;78.60;;;;;;4994857;28;19920;-71
2024/01/29 02:33:37;;;;;;;;;;;8.40;78.50;;;;;;4981340;28;19917;-71
2024/01/29 02:36:02;;;;;;;;;;;8.40;78.30;;;;;;4983340;28;19940;-71
2024/01/29 02:38:28;;;;;;;;;;;8.40;78.60;;;;;;4979398;28;19984;-71
2024/01/29 02:40:56;;;;;;;;;;;8.30;78.40;;;;;;4973924;28;20013;-71
2024/01/29 02:43:21;;;;;;;;;;;8.40;78.10;;;;;;4982342;28;19924;-71
2024/01/29 02:45:48;;;;;;;;;;;8.40;78.20;;;;;;4979159;28;19913;-71
2024/01/29 02:48:16;;;;;;;;;;;8.30;78.10;;;;;;4979229;28;19918;-71
2024/01/29 02:50:42;;;;;;;;;;;8.30;77.70;;;;;;4980711;28;20120;-71
2024/01/29 02:53:07;;;;;;;;;;;8.40;78.20;;;;;;4981015;28;20448;-71
2024/01/29 02:55:33;;;;;;;;;;;8.40;77.70;;;;;;4980301;28;19914;-71
2024/01/29 02:58:00;;;;;;;;;;;8.40;78.20;;;;;;4978185;28;19917;-71
2024/01/29 03:00:26;;;;;;;;;;;8.40;78.00;;;;;;4978217;28;19968;-71
2024/01/29 03:02:51;;;;;;;;;;;8.40;77.90;;;;;;4980623;28;19957;-71
2024/01/29 03:05:17;;;;;;;;;;;8.30;77.80;;;;;;4976965;28;19929;-71
2024/01/29 03:07:42;;;;;;;;;;;8.40;78.00;;;;;;4978800;28;19922;-73
2024/01/29 03:10:08;;;;;;;;;;;8.30;77.80;;;;;;4977861;28;20008;-71
2024/01/29 03:12:33;;;;;;;;;;;8.30;77.80;;;;;;4994313;28;19916;-71
2024/01/29 03:15:01;;;;;;;;;;;8.30;77.80;;;;;;4992444;28;19963;-71
2024/01/29 03:17:27;;;;;;;;;;;8.30;78.10;;;;;;5001153;28;19913;-71
2024/01/29 03:19:52;;;;;;;;;;;8.30;77.80;;;;;;4994987;28;19914;-72
2024/01/29 03:22:18;;;;;;;;;;;8.30;78.20;;;;;;4997169;28;19920;-71
2024/01/29 03:24:43;;;;;;;;;;;8.30;78.10;;;;;;4983571;28;19968;-71
2024/01/29 03:27:09;;;;;;;;;;;8.20;78.00;;;;;;4977421;28;20008;-71
2024/01/29 03:29:36;;;;;;;;;;;8.20;78.50;;;;;;4982202;28;19913;-71
2024/01/29 03:32:02;;;;;;;;;;;8.20;78.10;;;;;;4989494;28;19917;-71
2024/01/29 03:34:28;;;;;;;;;;;8.10;78.10;;;;;;5000483;28;19913;-71
2024/01/29 03:36:55;;;;;;;;;;;8.20;78.40;;;;;;4998006;28;20607;-71
2024/01/29 03:39:21;;;;;;;;;;;8.10;78.20;;;;;;4999185;28;19905;-71
2024/01/29 03:41:46;;;;;;;;;;;8.10;78.40;;;;;;4993772;28;19914;-71
2024/01/29 03:44:14;;;;;;;;;;;8.10;78.60;;;;;;4994496;28;19923;-71
2024/01/29 03:46:39;;;;;;;;;;;8.00;78.50;;;;;;4997140;28;19983;-71
2024/01/29 03:49:05;;;;;;;;;;;8.00;78.60;;;;;;5001787;28;19917;-71
2024/01/29 03:51:30;;;;;;;;;;;8.00;78.40;;;;;;5000697;28;19906;-71
2024/01/29 03:53:56;;;;;;;;;;;8.00;78.70;;;;;;4998990;28;19914;-71
2024/01/29 03:56:23;;;;;;;;;;;7.90;78.70;;;;;;5001148;28;23213;-71
2024/01/29 03:58:51;;;;;;;;;;;7.90;79.30;;;;;;4997954;28;19953;-71
2024/01/29 04:01:27;;;;;;;;;;;7.90;79.40;;;;;;5002470;28;19914;-71
2024/01/29 04:03:53;;;;;;;;;;;7.80;79.70;;;;;;4996449;28;19932;-71
2024/01/29 04:06:18;;;;;;;;;;;7.70;80.00;;;;;;4997898;28;19918;-71
2024/01/29 04:08:43;;;;;;;;;;;7.70;80.20;;;;;;4995609;28;19924;-71
2024/01/29 04:11:11;;;;;;;;;;;7.60;80.20;;;;;;4996994;28;20403;-71
2024/01/29 04:13:39;;;;;;;;;;;7.60;80.00;;;;;;5000479;28;20008;-71
2024/01/29 04:16:04;;;;;;;;;;;7.60;80.00;;;;;;5004825;28;19920;-71
2024/01/29 04:18:30;;;;;;;;;;;7.60;80.10;;;;;;5002667;28;19905;-71
2024/01/29 04:20:56;;;;;;;;;;;7.60;79.80;;;;;;4998969;28;19913;-71
2024/01/29 04:23:21;;;;;;;;;;;7.60;80.10;;;;;;5001477;28;19918;-71
2024/01/29 04:25:47;;;;;;;;;;;7.50;80.10;;;;;;4998559;28;19968;-71
2024/01/29 04:28:15;;;;;;;;;;;7.50;80.00;;;;;;4997974;28;20447;-71
2024/01/29 04:30:42;;;;;;;;;;;7.50;79.80;;;;;;4982235;28;19917;-71
2024/01/29 04:33:08;;;;;;;;;;;7.60;80.00;;;;;;4986325;28;19937;-71
2024/01/29 04:35:34;;;;;;;;;;;7.50;80.10;;;;;;4982713;28;19921;-71
2024/01/29 04:37:59;;;;;;;;;;;7.50;80.10;;;;;;4983140;28;19944;-71
2024/01/29 04:40:27;;;;;;;;;;;7.50;80.80;;;;;;4980304;28;20547;-71
2024/01/29 04:42:55;;;;;;;;;;;7.50;79.70;;;;;;4983628;28;19936;-71
2024/01/29 04:45:21;;;;;;;;;;;7.50;80.20;;;;;;4985800;28;19988;-71
2024/01/29 04:47:46;;;;;;;;;;;7.40;79.70;;;;;;4979630;28;20597;-71
2024/01/29 04:50:12;;;;;;;;;;;7.50;79.80;;;;;;4979090;28;19918;-71
2024/01/29 04:52:39;;;;;;;;;;;7.40;79.80;;;;;;4978169;28;20541;-71
2024/01/29 04:55:07;;;;;;;;;;;7.50;79.60;;;;;;4982329;28;19914;-71
2024/01/29 04:57:33;;;;;;;;;;;7.50;79.60;;;;;;4983162;28;19912;-71
2024/01/29 05:00:03;;;;;;;;;;;7.50;79.60;;;;;;4983434;28;19927;-71
2024/01/29 05:02:28;;;;;;;;;;;7.70;79.60;;;;;;4987083;28;20345;-71
2024/01/29 05:04:55;;;;;;;;;;;7.60;79.60;;;;;;4986131;28;19925;-71
2024/01/29 05:07:22;;;;;;;;;;;7.50;79.60;;;;;;4978901;28;19943;-71
2024/01/29 05:09:48;;;;;;;;;;;7.60;79.80;;;;;;4984829;28;20467;-71
2024/01/29 05:12:15;;;;;;;;;;;7.50;79.60;;;;;;4999343;28;19924;-71
2024/01/29 05:14:41;;;;;;;;;;;7.50;79.90;;;;;;4988534;28;19914;-71
2024/01/29 05:17:06;;;;;;;;;;;7.50;79.90;;;;;;4981910;28;20397;-71
2024/01/29 05:19:32;;;;;;;;;;;7.60;80.00;;;;;;4980044;28;20004;-71
2024/01/29 05:21:57;;;;;;;;;;;7.50;80.00;;;;;;4977338;28;20288;-71
2024/01/29 05:24:23;;;;;;;;;;;7.60;80.10;;;;;;4978280;28;19925;-71
2024/01/29 05:26:48;;;;;;;;;;;7.60;80.00;;;;;;4982218;28;19917;-71
2024/01/29 05:29:14;;;;;;;;;;;7.60;80.00;;;;;;4978217;28;20300;-71
2024/01/29 05:31:39;;;;;;;;;;;7.60;80.40;;;;;;4982489;28;19929;-71
2024/01/29 05:34:05;;;;;;;;;;;7.60;80.50;;;;;;4984420;28;20305;-71
2024/01/29 05:36:30;;;;;;;;;;;7.50;80.30;;;;;;4975717;28;19910;-71
2024/01/29 05:38:56;;;;;;;;;;;7.60;80.50;;;;;;4980160;28;20001;-71
2024/01/29 05:41:21;;;;;;;;;;;7.60;80.50;;;;;;4983337;28;19914;-71
2024/01/29 05:43:49;;;;;;;;;;;7.70;80.40;;;;;;4975596;28;19980;-71
2024/01/29 05:46:17;;;;;;;;;;;7.60;80.50;;;;;;4982659;28;19929;-71
2024/01/29 05:48:42;;;;;;;;;;;7.60;80.60;;;;;;4984531;28;19910;-71
2024/01/29 05:51:08;;;;;;;;;;;7.60;80.80;;;;;;4986675;28;19910;-71
2024/01/29 05:53:33;;;;;;;;;;;7.50;80.60;;;;;;4986817;28;20398;-71
2024/01/29 05:55:59;;;;;;;;;;;7.50;80.80;;;;;;4981309;28;19926;-71
2024/01/29 05:58:27;;;;;;;;;;;7.50;80.90;;;;;;4978695;28;20392;-71
2024/01/29 06:00:53;;;;;;;;;;;7.50;81.00;;;;;;4978092;28;19921;-71
2024/01/29 06:03:19;;;;;;;;;;;7.50;81.10;;;;;;4986985;28;19918;-71
2024/01/29 06:05:44;;;;;;;;;;;7.50;81.20;;;;;;4977106;28;19926;-71
2024/01/29 06:08:10;;;;;;;;;;;7.50;81.30;;;;;;4985950;28;20215;-71
2024/01/29 06:10:35;;;;;;;;;;;7.50;81.40;;;;;;4982262;28;19913;-71
2024/01/29 06:13:01;;;;;;;;;;;7.50;81.50;;;;;;4982501;28;20376;-71
2024/01/29 06:15:26;;;;;;;;;;;7.50;81.70;;;;;;4988511;28;19914;-71
2024/01/29 06:17:54;;;;;;;;;;;7.40;81.70;;;;;;4980057;28;20090;-71
2024/01/29 06:20:22;;;;;;;;;;;7.40;82.00;;;;;;4981335;28;19948;-71
2024/01/29 06:22:47;;;;;;;;;;;7.40;82.00;;;;;;4974565;28;20272;-71
2024/01/29 06:25:13;;;;;;;;;;;7.30;82.10;;;;;;4977298;28;20396;-71
2024/01/29 06:27:41;;;;;;;;;;;7.30;82.30;;;;;;5006734;28;19918;-71
2024/01/29 06:30:09;;;;;;;;;;;7.20;82.40;;;;;;4974675;28;20008;-72
2024/01/29 06:32:34;;;;;;;;;;;7.20;82.60;;;;;;4975694;28;20262;-71
2024/01/29 06:35:00;;;;;;;;;;;7.20;82.70;;;;;;4977078;28;19944;-71
2024/01/29 06:37:25;;;;;;;;;;;7.20;82.90;;;;;;4978605;28;19972;-71
2024/01/29 06:39:51;;;;;;;;;;;7.20;83.10;;;;;;4976759;28;19917;-71
2024/01/29 06:42:16;;;;;;;;;;;7.20;83.10;;;;;;4979651;28;19953;-71
2024/01/29 06:44:42;;;;;;;;;;;7.10;83.20;;;;;;4973230;28;19917;-71
2024/01/29 06:47:07;;;;;;;;;;;7.10;83.20;;;;;;4972403;23;20353;-71
2024/01/29 06:49:35;;;;;;;;;;;7.10;83.30;;;;;;4959447;28;19914;-71
2024/01/29 06:52:00;;;;;;;;;;;7.10;83.40;;;;;;4975044;28;19938;-71
2024/01/29 06:54:26;;;;;;;;;;;7.10;83.50;;;;;;4960885;28;19914;-71
2024/01/29 06:56:52;;;;;;;;;;;7.10;83.60;;;;;;4957465;28;19914;-71
2024/01/29 06:59:20;;;;;;;;;;;7.10;83.60;;;;;;4961015;28;19922;-71
2024/01/29 07:01:47;;;;;;;;;;;7.10;83.70;;;;;;4960933;28;19914;-71
2024/01/29 07:04:13;;;;;;;;;;;7.10;83.70;;;;;;4957267;28;19926;-71
2024/01/29 07:06:42;;;;;;;;;;;7.10;83.70;;;;;;4959095;28;19914;-71
2024/01/29 07:09:07;;;;;;;;;;;7.10;83.80;;;;;;4963430;28;20304;-71
2024/01/29 07:11:33;;;;;;;;;;;7.10;83.90;;;;;;4961866;28;19976;-71
2024/01/29 07:13:58;;;;;;;;;;;7.10;83.90;;;;;;4961269;28;19922;-71
2024/01/29 07:16:24;;;;;;;;;;;7.10;84.10;;;;;;4964300;28;19922;-71
2024/01/29 07:18:49;;;;;;;;;;;7.10;84.30;;;;;;4958448;28;19945;-71
2024/01/29 07:21:17;;;;;;;;;;;7.10;84.40;;;;;;4964484;28;20271;-70
2024/01/29 07:23:45;;;;;;;;;;;7.10;84.60;;;;;;4963631;28;20017;-71
2024/01/29 07:26:13;;;;;;;;;;;7.10;84.60;;;;;;4955937;28;19922;-71
2024/01/29 07:28:41;;;;;;;;;;;7.10;84.80;;;;;;4959570;28;20009;-71
2024/01/29 07:31:06;;;;;;;;;;;7.10;84.90;;;;;;4962687;28;19910;-71
2024/01/29 07:33:32;;;;;;;;;;;7.10;84.90;;;;;;4959055;28;19906;-71
2024/01/29 07:35:57;;;;;;;;;;;7.10;85.00;;;;;;4951248;28;20409;-71
2024/01/29 07:38:25;;;;;;;;;;;7.10;85.10;;;;;;4961181;28;19984;-71
2024/01/29 07:40:53;;;;;;;;;;;7.10;85.10;;;;;;4960968;28;20572;-71
2024/01/29 07:43:19;;;;;;;;;;;7.20;85.10;;;;;;4962367;28;20283;-71
2024/01/29 07:45:47;;;;;;;;;;;7.20;85.20;;;;;;4976845;28;19921;-71
2024/01/29 07:48:12;;;;;;;;;;;7.20;85.90;;;;;;4953164;28;19918;-71
2024/01/29 07:50:37;;;;;;;;;;;7.20;85.30;;;;;;4957546;28;20258;-71
2024/01/29 07:53:05;;;;;;;;;;;7.20;85.30;;;;;;4992178;28;19921;-71
2024/01/29 07:55:31;;;;;;;;;;;7.20;85.50;;;;;;4962738;28;19940;-71
2024/01/29 07:57:56;;;;;;;;;;;7.20;85.40;;;;;;4980082;28;20392;-71
2024/01/29 08:00:25;;;;;;;;;;;7.30;85.50;;;;;;4966010;28;19968;-71
2024/01/29 08:02:50;;;;;;;;;;;7.30;85.60;;;;;;4966486;28;19929;-71
2024/01/29 08:05:16;;;;;;;;;;;7.40;85.80;;;;;;4962537;28;20309;-71
2024/01/29 08:07:41;;;;;;;;;;;7.40;85.70;;;;;;4964118;28;19922;-71
2024/01/29 08:10:08;;;;;;;;;;;7.40;85.60;;;;;;4964389;28;19941;-71
2024/01/29 08:12:33;;;;;;;;;;;7.50;86.00;;;;;;4957740;28;19918;-71
2024/01/29 08:14:59;;;;;;;;;;;7.40;85.80;;;;;;4963404;28;20030;-71
2024/01/29 08:17:25;;;;;;;;;;;7.50;86.00;;;;;;4962781;28;19917;-71
2024/01/29 08:19:51;;;;;;;;;;;7.50;85.90;;;;;;4964807;28;19928;-72
2024/01/29 08:22:17;;;;;;;;;;;7.50;86.60;;;;;;4964838;28;19938;-71
2024/01/29 08:24:42;;;;;;;;;;;7.50;86.20;;;;;;4962082;28;19938;-71
2024/01/29 08:27:10;;;;;;;;;;;7.60;86.10;;;;;;4962553;28;19921;-71
2024/01/29 08:29:38;;;;;;;;;;;7.60;86.00;;;;;;4965736;28;19922;-71
2024/01/29 08:32:04;;;;;;;;;;;7.60;86.20;;;;;;4966383;28;20383;-71
2024/01/29 08:34:32;;;;;;;;;;;7.60;86.10;;;;;;4967511;28;19918;-71
2024/01/29 08:37:00;;;;;;;;;;;7.60;86.00;;;;;;4970003;28;20392;-71
2024/01/29 08:39:27;;;;;;;;;;;7.70;85.90;;;;;;4963701;28;19969;-71
2024/01/29 08:41:53;;;;;;;;;;;7.70;86.20;;;;;;4969587;28;19948;-71
2024/01/29 08:44:18;;;;;;;;;;;7.70;86.00;;;;;;4967102;28;20365;-71
2024/01/29 08:46:44;;;;;;;;;;;7.70;86.00;;;;;;4964765;28;20028;-71
2024/01/29 08:49:09;;;;;;;;;;;7.70;86.20;;;;;;4965103;28;20372;-71
2024/01/29 08:51:35;;;;;;;;;;;7.70;86.40;;;;;;4959949;28;19925;-70
2024/01/29 08:54:02;;;;;;;;;;;7.70;86.30;;;;;;4979379;28;19942;-71
2024/01/29 08:56:31;;;;;;;;;;;7.70;86.30;;;;;;4978703;28;19924;-71
2024/01/29 08:58:57;;;;;;;;;;;7.70;86.60;;;;;;4979459;28;19945;-71
2024/01/29 09:01:23;;;;;;;;;;;7.80;86.60;;;;;;4975729;28;19917;-71
2024/01/29 09:03:51;;;;;;;;;;;7.80;86.60;;;;;;4960110;28;19921;-71
2024/01/29 09:06:17;;;;;;;;;;;7.80;86.60;;;;;;4981669;28;19922;-71
2024/01/29 09:08:43;;;;;;;;;;;7.90;86.70;;;;;;4967079;28;19922;-71
2024/01/29 09:11:08;;;;;;;;;;;8.00;86.80;;;;;;4973145;28;19914;-71
2024/01/29 09:13:34;;;;;;;;;;;8.00;86.90;;;;;;4967908;28;19925;-71
2024/01/29 09:15:59;;;;;;;;;;;8.00;87.00;;;;;;4965313;28;19921;-71
2024/01/29 09:18:25;;;;;;;;;;;8.00;86.90;;;;;;4966272;28;20353;-71
2024/01/29 09:20:50;;;;;;;;;;;8.10;87.10;;;;;;4962769;28;20085;-71
2024/01/29 09:23:18;;;;;;;;;;;8.10;86.60;;;;;;4966682;28;19937;-71
2024/01/29 09:25:46;;;;;;;;;;;8.10;87.10;;;;;;4962130;28;19925;-71
2024/01/29 09:28:12;;;;;;;;;;;8.20;87.10;;;;;;4960752;28;19914;-71
2024/01/29 09:30:37;;;;;;;;;;;8.20;86.70;;;;;;4957552;28;19918;-71
2024/01/29 09:33:05;;;;;;;;;;;8.30;87.10;;;;;;4956443;28;20337;-71
2024/01/29 09:35:30;;;;;;;;;;;8.20;87.00;;;;;;4959735;28;20827;-71
2024/01/29 09:37:58;;;;;;;;;;;8.30;87.00;;;;;;4958284;28;20021;-71
2024/01/29 09:40:24;;;;;;;;;;;8.30;87.40;;;;;;4956411;28;19921;-71
2024/01/29 09:42:52;;;;;;;;;;;8.40;87.00;;;;;;4962267;28;20713;-70
2024/01/29 09:45:22;;;;;;;;;;;8.50;86.80;;;;;;4981937;28;20326;-71
2024/01/29 09:47:49;;;;;;;;;;;8.60;87.10;;;;;;4978859;28;19925;-71
2024/01/29 09:50:18;;;;;;;;;;;8.70;87.20;;;;;;4980152;28;19976;-71
2024/01/29 09:52:44;;;;;;;;;;;8.80;86.70;;;;;;4984061;28;19914;-71
2024/01/29 09:55:11;;;;;;;;;;;8.90;86.70;;;;;;4977723;28;19948;-71
2024/01/29 09:57:37;;;;;;;;;;;9.00;87.40;;;;;;4983152;28;19909;-71
2024/01/29 10:00:03;;;;;;;;;;;9.10;86.60;;;;;;4977799;28;19914;-71
2024/01/29 10:02:31;;;;;;;;;;;9.20;86.50;;;;;;4978177;28;19920;-71
2024/01/29 10:04:57;;;;;;;;;;;9.20;86.50;;;;;;4975469;28;19924;-71
2024/01/29 10:07:27;;;;;;;;;;;9.30;86.30;;;;;;4980200;28;19918;-71
2024/01/29 10:09:55;;;;;;;;;;;9.40;86.70;;;;;;4965206;28;19918;-71
2024/01/29 10:12:22;;;;;;;;;;;9.40;86.00;;;;;;4962862;28;19909;-71
2024/01/29 10:14:47;;;;;;;;;;;9.50;85.90;;;;;;4959679;28;19922;-71
2024/01/29 10:17:15;;;;;;;;;;;9.60;86.10;;;;;;4967619;28;19989;-72
2024/01/29 10:19:44;;;;;;;;;;;9.60;85.70;;;;;;4957895;28;19932;-71
2024/01/29 10:22:15;;;;;;;;;;;9.70;85.90;;;;;;4960064;28;19933;-71
2024/01/29 10:24:40;;;;;;;;;;;9.70;86.00;;;;;;4962583;28;19921;-71
2024/01/29 10:27:07;;;;;;;;;;;9.80;85.70;;;;;;4955365;28;20008;-71
2024/01/29 10:29:45;;;;;;;;;;;9.90;85.70;;;;;;4961947;28;20005;-71
2024/01/29 10:32:10;;;;;;;;;;;10.00;84.90;;;;;;4963146;28;19921;-71
2024/01/29 10:34:36;;;;;;;;;;;10.10;84.80;;;;;;4961840;28;19914;-71
2024/01/29 10:37:02;;;;;;;;;;;10.30;85.40;;;;;;4962077;28;20044;-71
2024/01/29 10:39:29;;;;;;;;;;;10.30;85.00;;;;;;4959622;28;20022;-71
2024/01/29 10:41:56;;;;;;;;;;;10.40;84.60;;;;;;4971137;28;20428;-71
2024/01/29 10:44:23;;;;;;;;;;;10.60;84.90;;;;;;4964469;28;20620;-71
2024/01/29 10:46:49;;;;;;;;;;;10.70;84.60;;;;;;4961943;28;19922;-71
2024/01/29 10:49:15;;;;;;;;;;;10.80;85.10;;;;;;4972502;28;19968;-71
2024/01/29 10:51:43;;;;;;;;;;;10.90;84.40;;;;;;4959573;28;19914;-72
2024/01/29 10:54:12;;;;;;;;;;;11.10;84.50;;;;;;4962548;28;19954;-72
2024/01/29 10:56:40;;;;;;;;;;;11.30;84.50;;;;;;4960678;28;19940;-72
2024/01/29 10:59:08;;;;;;;;;;;11.40;84.40;;;;;;4984915;28;20723;-72
2024/01/29 11:01:37;;;;;;;;;;;11.60;84.70;;;;;;4972427;28;20542;-72
2024/01/29 11:04:03;;;;;;;;;;;11.70;83.80;;;;;;4974022;28;19914;-72
2024/01/29 11:06:35;;;;;;;;;;;11.90;84.00;;;;;;4961057;28;20445;-72
2024/01/29 11:09:03;;;;;;;;;;;12.20;82.90;;;;;;4974294;28;19957;-72
2024/01/29 11:11:30;;;;;;;;;;;12.40;83.40;;;;;;4976860;28;20376;-73
2024/01/29 11:13:56;;;;;;;;;;;12.60;82.80;;;;;;4973697;28;19928;-72
2024/01/29 11:16:24;;;;;;;;;;;12.70;82.70;;;;;;4979826;28;19918;-72
2024/01/29 11:18:50;;;;;;;;;;;12.70;81.90;;;;;;4977929;28;20406;-72
2024/01/29 11:21:16;;;;;;;;;;;12.70;81.80;;;;;;4953052;28;19914;-72
2024/01/29 11:23:47;;;;;;;;;;;12.50;81.00;;;;;;4953949;28;20368;-72
2024/01/29 11:26:15;;;;;;;;;;;12.50;81.90;;;;;;4964559;28;20108;-72
2024/01/29 11:28:41;;;;;;;;;;;12.40;81.90;;;;;;4963892;28;19950;-72
2024/01/29 11:31:08;;;;;;;;;;;12.40;81.60;;;;;;4961639;28;20341;-72
2024/01/29 11:33:34;;;;;;;;;;;12.40;82.50;;;;;;4968972;28;19910;-72
2024/01/29 11:36:05;;;;;;;;;;;12.60;83.30;;;;;;4980839;28;19991;-72
2024/01/29 11:38:30;;;;;;;;;;;13.00;82.80;;;;;;4966402;28;19919;-73
2024/01/29 11:41:00;;;;;;;;;;;13.60;84.00;;;;;;4960193;28;19934;-72
2024/01/29 11:43:25;;;;;;;;;;;14.00;84.20;;;;;;4960753;28;20509;-73
2024/01/29 11:45:54;;;;;;;;;;;14.60;81.10;;;;;;4962259;28;19925;-73
2024/01/29 11:48:21;;;;;;;;;;;15.00;80.50;;;;;;4965837;28;20466;-73
2024/01/29 11:50:47;;;;;;;;;;;15.50;80.00;;;;;;4975358;28;20285;-73
2024/01/29 11:53:16;;;;;;;;;;;15.90;78.80;;;;;;4978975;28;19952;-73
2024/01/29 11:55:46;;;;;;;;;;;16.20;77.70;;;;;;4974378;28;20439;-72
2024/01/29 11:58:13;;;;;;;;;;;16.10;74.90;;;;;;4971950;28;19922;-73
2024/01/29 12:00:39;;;;;;;;;;;16.20;75.90;;;;;;4984123;28;19910;-73
2024/01/29 12:03:06;;;;;;;;;;;16.40;75.60;;;;;;4964591;28;20371;-73
2024/01/29 12:05:31;;;;;;;;;;;16.30;75.30;;;;;;4957280;28;20016;-73
2024/01/29 12:07:57;;;;;;;;;;;16.40;75.80;;;;;;4956481;28;20033;-73
2024/01/29 12:10:22;;;;;;;;;;;16.40;74.60;;;;;;4961792;28;19960;-73
2024/01/29 12:12:48;;;;;;;;;;;16.10;74.00;;;;;;4959956;28;19914;-73
2024/01/29 12:15:16;;;;;;;;;;;16.10;74.60;;;;;;4959341;28;19914;-73
2024/01/29 12:17:44;;;;;;;;;;;15.90;75.00;;;;;;4966588;28;19914;-73
2024/01/29 12:20:13;;;;;;;;;;;15.80;74.00;;;;;;4966256;28;19925;-73
2024/01/29 12:22:39;;;;;;;;;;;15.60;74.90;;;;;;4964142;28;20516;-73
2024/01/29 12:25:13;;;;;;;;;;;15.70;76.30;;;;;;4982364;28;19917;-73
2024/01/29 12:27:42;;;;;;;;;;;15.70;74.70;;;;;;4961605;28;19910;-73
2024/01/29 12:30:12;;;;;;;;;;;15.70;75.00;;;;;;4956650;28;20381;-73
2024/01/29 12:32:41;;;;;;;;;;;15.60;75.00;;;;;;4960816;28;19980;-73
2024/01/29 12:35:25;;;;;;;;;;;15.40;75.20;;;;;;4961534;28;19919;-73
2024/01/29 12:37:51;;;;;;;;;;;15.30;75.70;;;;;;4963626;28;20444;-73
2024/01/29 12:40:16;;;;;;;;;;;15.20;75.80;;;;;;4964063;28;19921;-73
2024/01/29 12:42:44;;;;;;;;;;;15.10;76.50;;;;;;4982400;28;19976;-73
2024/01/29 12:45:14;;;;;;;;;;;15.00;76.50;;;;;;4965021;23;19918;-73
2024/01/29 12:47:39;;;;;;;;;;;14.80;76.50;;;;;;4985556;28;19921;-73
2024/01/29 12:50:05;;;;;;;;;;;14.80;76.00;;;;;;4979005;28;20519;-73
2024/01/29 12:52:32;;;;;;;;;;;14.80;76.30;;;;;;4983771;28;19973;-73
2024/01/29 12:54:58;;;;;;;;;;;14.90;76.50;;;;;;4980696;28;19918;-73
2024/01/29 12:57:25;;;;;;;;;;;14.70;76.00;;;;;;4981121;28;20367;-73
2024/01/29 12:59:51;;;;;;;;;;;14.70;76.70;;;;;;4986453;28;20638;-73
2024/01/29 13:02:16;;;;;;;;;;;14.70;77.40;;;;;;4980994;28;19928;-73
2024/01/29 13:04:42;;;;;;;;;;;14.90;78.30;;;;;;4983558;28;19991;-73
2024/01/29 13:07:10;;;;;;;;;;;15.00;77.40;;;;;;4984888;28;19957;-73
2024/01/29 13:09:36;;;;;;;;;;;15.00;77.10;;;;;;4982719;28;20332;-73
2024/01/29 13:12:02;;;;;;;;;;;14.90;77.40;;;;;;4985273;28;19972;-73
2024/01/29 13:14:27;;;;;;;;;;;14.80;77.80;;;;;;4983131;28;19914;-73
2024/01/29 13:16:53;;;;;;;;;;;15.00;78.40;;;;;;4985001;28;20624;-73
2024/01/29 13:19:20;;;;;;;;;;;15.10;77.70;;;;;;4982724;28;20015;-73
2024/01/29 13:21:48;;;;;;;;;;;15.30;77.30;;;;;;4981960;28;19914;-73
2024/01/29 13:24:13;;;;;;;;;;;15.70;78.20;;;;;;4989509;28;19926;-73
2024/01/29 13:26:40;;;;;;;;;;;16.10;79.30;;;;;;4982192;28;19918;-73
2024/01/29 13:29:09;;;;;;;;;;;16.30;77.90;;;;;;4980586;28;20352;-73
2024/01/29 13:31:36;;;;;;;;;;;16.50;77.10;;;;;;4989306;28;19924;-73
2024/01/29 13:34:04;;;;;;;;;;;16.70;75.90;;;;;;5001258;28;19924;-73
2024/01/29 13:36:33;;;;;;;;;;;16.90;76.90;;;;;;4981028;28;19910;-73
2024/01/29 13:39:03;;;;;;;;;;;17.10;75.50;;;;;;4984394;28;20408;-73
2024/01/29 13:41:31;;;;;;;;;;;17.40;74.40;;;;;;4985669;28;19917;-73
2024/01/29 13:43:56;;;;;;;;;;;17.30;74.00;;;;;;4979954;28;20009;-73
2024/01/29 13:46:22;;;;;;;;;;;17.00;73.60;;;;;;4982609;28;20332;-73
2024/01/29 13:48:47;;;;;;;;;;;16.70;74.50;;;;;;4984859;28;19912;-73
2024/01/29 13:51:21;;;;;;;;;;;16.60;75.60;;;;;;4982045;28;20384;-73
2024/01/29 13:53:47;;;;;;;;;;;16.80;76.00;;;;;;4981719;28;20007;-74
2024/01/29 13:56:13;;;;;;;;;;;16.90;74.80;;;;;;4986817;28;19918;-73
2024/01/29 13:58:41;;;;;;;;;;;17.10;75.30;;;;;;4986815;28;19929;-73
2024/01/29 14:01:08;;;;;;;;;;;17.30;75.80;;;;;;4999898;28;20264;-73
2024/01/29 14:03:34;;;;;;;;;;;17.40;75.00;;;;;;4985284;28;19963;-73
2024/01/29 14:06:00;;;;;;;;;;;17.50;74.20;;;;;;4981271;28;20016;-74
2024/01/29 14:08:28;;;;;;;;;;;17.50;74.80;;;;;;4983819;28;20073;-73
2024/01/29 14:10:53;;;;;;;;;;;17.60;74.80;;;;;;4984435;28;19924;-73
2024/01/29 14:13:19;;;;;;;;;;;17.60;74.30;;;;;;4988532;28;19922;-74
2024/01/29 14:15:44;;;;;;;;;;;17.60;74.10;;;;;;4986713;28;19918;-74
2024/01/29 14:18:10;;;;;;;;;;;17.50;73.60;;;;;;4986315;28;19925;-73
2024/01/29 14:20:35;;;;;;;;;;;17.40;73.80;;;;;;4982513;28;19926;-73